sensor_id;sensor_type;location;lat;lon;timestamp;temperature;humidity
18281;DHT22;9266;51.132;17.062;2023-05-17T00:00:31;10.20;99.90
18281;DHT22;9266;51.132;17.062;2023-05-17T00:02:58;10.10;99.90
18281;DHT22;9266;51.132;17.062;2023-05-17T00:05:25;10.10;99.90
18281;DHT22;9266;51.132;17.062;2023-05-17T00:07:52;10.10;99.90
18281;DHT22;9266;51.132;17.062;2023-05-17T00:10:19;10.10;99.90
18281;DHT22;9266;51.132;17.062;2023-05-17T00:12:46;10.10;99.90
18281;DHT22;9266;51.132;17.062;2023-05-17T00:15:14;10.10;99.90
18281;DHT22;9266;51.132;17.062;2023-05-17T00:17:41;10.10;99.90
18281;DHT22;9266;51.132;17.062;2023-05-17T00:20:09;10.10;99.90
18281;DHT22;9266;51.132;17.062;2023-05-17T00:22:36;10.10;99.90
18281;DHT22;9266;51.132;17.062;2023-05-17T00:25:05;10.00;99.90
18281;DHT22;9266;51.132;17.062;2023-05-17T00:27:33;10.00;99.90
18281;DHT22;9266;51.132;17.062;2023-05-17T00:30:00;10.10;99.90
18281;DHT22;9266;51.132;17.062;2023-05-17T00:32:28;10.10;99.90
18281;DHT22;9266;51.132;17.062;2023-05-17T00:34:55;10.00;99.90
18281;DHT22;9266;51.132;17.062;2023-05-17T00:37:22;10.00;99.90
18281;DHT22;9266;51.132;17.062;2023-05-17T00:39:49;10.10;99.90
18281;DHT22;9266;51.132;17.062;2023-05-17T00:42:17;10.00;99.90
18281;DHT22;9266;51.132;17.062;2023-05-17T00:44:44;10.00;99.90
18281;DHT22;9266;51.132;17.062;2023-05-17T00:47:11;10.00;99.90
18281;DHT22;9266;51.132;17.062;2023-05-17T00:49:40;10.00;99.90
18281;DHT22;9266;51.132;17.062;2023-05-17T00:52:08;10.00;99.90
18281;DHT22;9266;51.132;17.062;2023-05-17T00:54:35;10.00;99.90
18281;DHT22;9266;51.132;17.062;2023-05-17T00:57:03;10.00;99.90
18281;DHT22;9266;51.132;17.062;2023-05-17T00:59:31;9.90;99.90
18281;DHT22;9266;51.132;17.062;2023-05-17T01:01:58;9.90;99.90
18281;DHT22;9266;51.132;17.062;2023-05-17T01:04:26;10.00;99.90
18281;DHT22;9266;51.132;17.062;2023-05-17T01:06:55;10.00;99.90
18281;DHT22;9266;51.132;17.062;2023-05-17T01:09:22;9.90;99.90
18281;DHT22;9266;51.132;17.062;2023-05-17T01:11:56;9.90;99.90
18281;DHT22;9266;51.132;17.062;2023-05-17T01:14:32;9.90;99.90
18281;DHT22;9266;51.132;17.062;2023-05-17T01:17:05;9.90;99.90
18281;DHT22;9266;51.132;17.062;2023-05-17T01:19:52;9.90;99.90
18281;DHT22;9266;51.132;17.062;2023-05-17T01:22:31;9.90;99.90
18281;DHT22;9266;51.132;17.062;2023-05-17T01:25:14;9.90;99.90
18281;DHT22;9266;51.132;17.062;2023-05-17T01:27:48;9.90;99.90
18281;DHT22;9266;51.132;17.062;2023-05-17T01:30:18;9.90;99.90
18281;DHT22;9266;51.132;17.062;2023-05-17T01:32:46;9.90;99.90
18281;DHT22;9266;51.132;17.062;2023-05-17T01:35:13;9.80;99.90
18281;DHT22;9266;51.132;17.062;2023-05-17T01:37:40;9.80;99.90
18281;DHT22;9266;51.132;17.062;2023-05-17T01:40:08;9.80;99.90
18281;DHT22;9266;51.132;17.062;2023-05-17T01:42:37;9.80;99.90
18281;DHT22;9266;51.132;17.062;2023-05-17T01:45:11;9.70;99.90
18281;DHT22;9266;51.132;17.062;2023-05-17T01:47:49;9.80;99.90
18281;DHT22;9266;51.132;17.062;2023-05-17T01:50:22;9.80;99.90
18281;DHT22;9266;51.132;17.062;2023-05-17T01:52:51;9.80;99.90
18281;DHT22;9266;51.132;17.062;2023-05-17T01:55:24;9.80;99.90
18281;DHT22;9266;51.132;17.062;2023-05-17T01:57:54;9.80;99.90
18281;DHT22;9266;51.132;17.062;2023-05-17T02:00:24;9.80;99.90
18281;DHT22;9266;51.132;17.062;2023-05-17T02:02:52;9.70;99.90
18281;DHT22;9266;51.132;17.062;2023-05-17T02:05:19;9.70;99.90
18281;DHT22;9266;51.132;17.062;2023-05-17T02:07:46;9.70;99.90
18281;DHT22;9266;51.132;17.062;2023-05-17T02:10:13;9.70;99.90
18281;DHT22;9266;51.132;17.062;2023-05-17T02:12:40;9.70;99.90
18281;DHT22;9266;51.132;17.062;2023-05-17T02:15:08;9.60;99.90
18281;DHT22;9266;51.132;17.062;2023-05-17T02:17:38;9.60;99.90
18281;DHT22;9266;51.132;17.062;2023-05-17T02:20:07;9.60;99.90
18281;DHT22;9266;51.132;17.062;2023-05-17T02:22:36;9.60;99.90
18281;DHT22;9266;51.132;17.062;2023-05-17T02:25:04;9.60;99.90
18281;DHT22;9266;51.132;17.062;2023-05-17T02:27:31;9.60;99.90
18281;DHT22;9266;51.132;17.062;2023-05-17T02:29:58;9.60;99.90
18281;DHT22;9266;51.132;17.062;2023-05-17T02:32:26;9.50;99.90
18281;DHT22;9266;51.132;17.062;2023-05-17T02:34:54;9.60;99.90
18281;DHT22;9266;51.132;17.062;2023-05-17T02:37:21;9.50;99.90
18281;DHT22;9266;51.132;17.062;2023-05-17T02:39:48;9.50;99.90
18281;DHT22;9266;51.132;17.062;2023-05-17T02:42:16;9.50;99.90
18281;DHT22;9266;51.132;17.062;2023-05-17T02:44:43;9.40;99.90
18281;DHT22;9266;51.132;17.062;2023-05-17T02:47:10;9.40;99.90
18281;DHT22;9266;51.132;17.062;2023-05-17T02:49:37;9.40;99.90
18281;DHT22;9266;51.132;17.062;2023-05-17T02:52:06;9.30;99.90
18281;DHT22;9266;51.132;17.062;2023-05-17T02:54:33;9.30;99.90
18281;DHT22;9266;51.132;17.062;2023-05-17T02:56:59;9.30;99.90
18281;DHT22;9266;51.132;17.062;2023-05-17T02:59:27;9.30;99.90
18281;DHT22;9266;51.132;17.062;2023-05-17T03:01:54;9.20;99.90
18281;DHT22;9266;51.132;17.062;2023-05-17T03:04:21;9.20;99.90
18281;DHT22;9266;51.132;17.062;2023-05-17T03:06:48;9.20;99.90
18281;DHT22;9266;51.132;17.062;2023-05-17T03:09:17;9.20;99.90
18281;DHT22;9266;51.132;17.062;2023-05-17T03:11:44;9.20;99.90
18281;DHT22;9266;51.132;17.062;2023-05-17T03:14:11;9.20;99.90
18281;DHT22;9266;51.132;17.062;2023-05-17T03:16:38;9.10;99.90
18281;DHT22;9266;51.132;17.062;2023-05-17T03:19:05;9.10;99.90
18281;DHT22;9266;51.132;17.062;2023-05-17T03:21:32;9.10;99.90
18281;DHT22;9266;51.132;17.062;2023-05-17T03:23:59;9.10;99.90
18281;DHT22;9266;51.132;17.062;2023-05-17T03:26:27;9.00;99.90
18281;DHT22;9266;51.132;17.062;2023-05-17T03:28:56;9.00;99.90
18281;DHT22;9266;51.132;17.062;2023-05-17T03:31:23;9.00;99.90
18281;DHT22;9266;51.132;17.062;2023-05-17T03:33:50;9.00;99.90
18281;DHT22;9266;51.132;17.062;2023-05-17T03:36:17;8.90;99.90
18281;DHT22;9266;51.132;17.062;2023-05-17T03:38:44;8.90;99.90
18281;DHT22;9266;51.132;17.062;2023-05-17T03:41:12;8.90;99.90
18281;DHT22;9266;51.132;17.062;2023-05-17T03:43:40;8.90;99.90
18281;DHT22;9266;51.132;17.062;2023-05-17T03:46:07;8.80;99.90
18281;DHT22;9266;51.132;17.062;2023-05-17T03:48:34;8.80;99.90
18281;DHT22;9266;51.132;17.062;2023-05-17T03:51:01;8.80;99.90
18281;DHT22;9266;51.132;17.062;2023-05-17T03:53:28;8.80;99.90
18281;DHT22;9266;51.132;17.062;2023-05-17T03:55:55;8.90;99.90
18281;DHT22;9266;51.132;17.062;2023-05-17T03:58:22;8.80;99.90
18281;DHT22;9266;51.132;17.062;2023-05-17T04:00:51;8.80;99.90
18281;DHT22;9266;51.132;17.062;2023-05-17T04:03:18;8.80;99.90
18281;DHT22;9266;51.132;17.062;2023-05-17T04:05:44;8.80;99.90
18281;DHT22;9266;51.132;17.062;2023-05-17T04:08:12;8.80;99.90
18281;DHT22;9266;51.132;17.062;2023-05-17T04:10:39;8.80;99.90
18281;DHT22;9266;51.132;17.062;2023-05-17T04:13:07;8.80;99.90
18281;DHT22;9266;51.132;17.062;2023-05-17T04:15:34;8.80;99.90
18281;DHT22;9266;51.132;17.062;2023-05-17T04:18:03;8.70;99.90
18281;DHT22;9266;51.132;17.062;2023-05-17T04:20:30;8.80;99.90
18281;DHT22;9266;51.132;17.062;2023-05-17T04:22:57;8.80;99.90
18281;DHT22;9266;51.132;17.062;2023-05-17T04:25:24;8.80;99.90
18281;DHT22;9266;51.132;17.062;2023-05-17T04:27:52;8.80;99.90
18281;DHT22;9266;51.132;17.062;2023-05-17T04:30:19;8.80;99.90
18281;DHT22;9266;51.132;17.062;2023-05-17T04:32:48;8.80;99.90
18281;DHT22;9266;51.132;17.062;2023-05-17T04:35:17;8.80;99.90
18281;DHT22;9266;51.132;17.062;2023-05-17T04:37:44;8.90;99.90
18281;DHT22;9266;51.132;17.062;2023-05-17T04:40:12;8.90;99.90
18281;DHT22;9266;51.132;17.062;2023-05-17T04:42:40;8.90;99.90
18281;DHT22;9266;51.132;17.062;2023-05-17T04:45:07;8.90;99.90
18281;DHT22;9266;51.132;17.062;2023-05-17T04:47:34;9.00;99.90
18281;DHT22;9266;51.132;17.062;2023-05-17T04:50:02;9.00;99.90
18281;DHT22;9266;51.132;17.062;2023-05-17T04:52:31;9.40;99.90
18281;DHT22;9266;51.132;17.062;2023-05-17T04:54:58;9.10;99.90
18281;DHT22;9266;51.132;17.062;2023-05-17T04:57:25;9.10;99.90
18281;DHT22;9266;51.132;17.062;2023-05-17T04:59:52;9.10;99.90
18281;DHT22;9266;51.132;17.062;2023-05-17T05:02:19;9.00;99.90
18281;DHT22;9266;51.132;17.062;2023-05-17T05:04:46;9.00;99.90
18281;DHT22;9266;51.132;17.062;2023-05-17T05:07:13;9.10;99.90
18281;DHT22;9266;51.132;17.062;2023-05-17T05:09:42;9.20;99.90
18281;DHT22;9266;51.132;17.062;2023-05-17T05:12:09;9.20;99.90
18281;DHT22;9266;51.132;17.062;2023-05-17T05:14:36;9.50;99.90
18281;DHT22;9266;51.132;17.062;2023-05-17T05:17:03;10.70;99.90
18281;DHT22;9266;51.132;17.062;2023-05-17T05:19:30;9.90;99.90
18281;DHT22;9266;51.132;17.062;2023-05-17T05:21:57;10.00;99.90
18281;DHT22;9266;51.132;17.062;2023-05-17T05:24:24;10.10;99.90
18281;DHT22;9266;51.132;17.062;2023-05-17T05:26:53;10.20;99.90
18281;DHT22;9266;51.132;17.062;2023-05-17T05:29:20;10.30;99.90
18281;DHT22;9266;51.132;17.062;2023-05-17T05:31:47;10.50;99.90
18281;DHT22;9266;51.132;17.062;2023-05-17T05:34:14;10.60;99.90
18281;DHT22;9266;51.132;17.062;2023-05-17T05:36:41;10.60;1.00
18281;DHT22;9266;51.132;17.062;2023-05-17T05:39:08;10.60;4.70
18281;DHT22;9266;51.132;17.062;2023-05-17T05:41:35;10.60;1.00
18281;DHT22;9266;51.132;17.062;2023-05-17T05:44:04;10.80;1.00
18281;DHT22;9266;51.132;17.062;2023-05-17T05:46:31;10.80;1.00
18281;DHT22;9266;51.132;17.062;2023-05-17T05:48:58;10.50;1.00
18281;DHT22;9266;51.132;17.062;2023-05-17T05:51:25;10.80;1.00
18281;DHT22;9266;51.132;17.062;2023-05-17T05:53:52;11.10;1.00
18281;DHT22;9266;51.132;17.062;2023-05-17T05:56:19;11.20;1.00
18281;DHT22;9266;51.132;17.062;2023-05-17T05:58:47;11.00;99.90
18281;DHT22;9266;51.132;17.062;2023-05-17T06:01:15;10.80;99.90
18281;DHT22;9266;51.132;17.062;2023-05-17T06:03:42;10.90;94.40
18281;DHT22;9266;51.132;17.062;2023-05-17T06:06:09;10.70;93.50
18281;DHT22;9266;51.132;17.062;2023-05-17T06:08:36;10.70;1.00
18281;DHT22;9266;51.132;17.062;2023-05-17T06:11:03;10.90;1.00
18281;DHT22;9266;51.132;17.062;2023-05-17T06:13:30;10.70;1.00
18281;DHT22;9266;51.132;17.062;2023-05-17T06:15:57;10.60;32.70
18281;DHT22;9266;51.132;17.062;2023-05-17T06:18:26;10.70;1.00
18281;DHT22;9266;51.132;17.062;2023-05-17T06:20:52;10.80;99.90
18281;DHT22;9266;51.132;17.062;2023-05-17T06:23:20;10.90;1.00
18281;DHT22;9266;51.132;17.062;2023-05-17T06:25:47;10.80;1.00
18281;DHT22;9266;51.132;17.062;2023-05-17T06:28:14;10.60;1.00
18281;DHT22;9266;51.132;17.062;2023-05-17T06:30:41;10.50;1.00
18281;DHT22;9266;51.132;17.062;2023-05-17T06:33:08;10.50;1.00
18281;DHT22;9266;51.132;17.062;2023-05-17T06:35:38;10.70;1.00
18281;DHT22;9266;51.132;17.062;2023-05-17T06:38:05;10.80;1.00
18281;DHT22;9266;51.132;17.062;2023-05-17T06:40:32;10.70;99.90
18281;DHT22;9266;51.132;17.062;2023-05-17T06:42:58;10.80;99.90
18281;DHT22;9266;51.132;17.062;2023-05-17T06:45:27;10.70;1.00
18281;DHT22;9266;51.132;17.062;2023-05-17T06:47:54;10.90;99.90
18281;DHT22;9266;51.132;17.062;2023-05-17T06:50:21;11.00;1.00
18281;DHT22;9266;51.132;17.062;2023-05-17T06:52:49;10.80;1.00
18281;DHT22;9266;51.132;17.062;2023-05-17T06:55:16;11.20;1.00
18281;DHT22;9266;51.132;17.062;2023-05-17T06:57:43;11.30;69.40
18281;DHT22;9266;51.132;17.062;2023-05-17T07:00:11;11.00;1.00
18281;DHT22;9266;51.132;17.062;2023-05-17T07:02:39;12.00;99.90
18281;DHT22;9266;51.132;17.062;2023-05-17T07:05:06;11.00;99.90
18281;DHT22;9266;51.132;17.062;2023-05-17T07:07:33;11.40;99.90
18281;DHT22;9266;51.132;17.062;2023-05-17T07:10:02;11.60;1.00
18281;DHT22;9266;51.132;17.062;2023-05-17T07:12:29;11.60;99.90
18281;DHT22;9266;51.132;17.062;2023-05-17T07:14:56;11.40;99.90
18281;DHT22;9266;51.132;17.062;2023-05-17T07:17:23;11.40;1.00
18281;DHT22;9266;51.132;17.062;2023-05-17T07:19:50;11.20;51.10
18281;DHT22;9266;51.132;17.062;2023-05-17T07:22:17;11.10;1.00
18281;DHT22;9266;51.132;17.062;2023-05-17T07:24:44;11.30;99.90
18281;DHT22;9266;51.132;17.062;2023-05-17T07:27:13;11.30;1.00
18281;DHT22;9266;51.132;17.062;2023-05-17T07:29:41;11.60;99.90
18281;DHT22;9266;51.132;17.062;2023-05-17T07:32:08;11.60;99.90
18281;DHT22;9266;51.132;17.062;2023-05-17T07:34:35;11.50;99.90
18281;DHT22;9266;51.132;17.062;2023-05-17T07:37:02;11.40;99.90
18281;DHT22;9266;51.132;17.062;2023-05-17T07:39:29;11.10;1.00
18281;DHT22;9266;51.132;17.062;2023-05-17T07:41:56;11.30;99.90
18281;DHT22;9266;51.132;17.062;2023-05-17T07:44:25;11.10;27.70
18281;DHT22;9266;51.132;17.062;2023-05-17T07:46:52;11.30;99.90
18281;DHT22;9266;51.132;17.062;2023-05-17T07:49:19;11.30;1.00
18281;DHT22;9266;51.132;17.062;2023-05-17T07:51:46;11.50;1.00
18281;DHT22;9266;51.132;17.062;2023-05-17T07:54:21;11.40;1.00
18281;DHT22;9266;51.132;17.062;2023-05-17T07:56:49;11.40;99.90
18281;DHT22;9266;51.132;17.062;2023-05-17T07:59:18;11.50;1.00
18281;DHT22;9266;51.132;17.062;2023-05-17T08:01:46;11.40;1.00
18281;DHT22;9266;51.132;17.062;2023-05-17T08:04:13;11.70;1.00
18281;DHT22;9266;51.132;17.062;2023-05-17T08:06:40;11.70;99.90
18281;DHT22;9266;51.132;17.062;2023-05-17T08:09:07;11.80;25.60
18281;DHT22;9266;51.132;17.062;2023-05-17T08:11:35;11.70;99.90
18281;DHT22;9266;51.132;17.062;2023-05-17T08:14:06;11.50;1.00
18281;DHT22;9266;51.132;17.062;2023-05-17T08:16:33;11.40;1.00
18281;DHT22;9266;51.132;17.062;2023-05-17T08:19:03;11.40;99.90
18281;DHT22;9266;51.132;17.062;2023-05-17T08:21:30;11.50;99.90
18281;DHT22;9266;51.132;17.062;2023-05-17T08:23:58;11.50;1.00
18281;DHT22;9266;51.132;17.062;2023-05-17T08:26:24;11.50;65.10
18281;DHT22;9266;51.132;17.062;2023-05-17T08:28:51;11.50;1.00
18281;DHT22;9266;51.132;17.062;2023-05-17T08:31:18;11.50;1.00
18281;DHT22;9266;51.132;17.062;2023-05-17T08:33:45;11.50;1.00
18281;DHT22;9266;51.132;17.062;2023-05-17T08:36:14;11.60;1.00
18281;DHT22;9266;51.132;17.062;2023-05-17T08:38:41;11.70;1.00
18281;DHT22;9266;51.132;17.062;2023-05-17T08:41:09;11.80;1.00
18281;DHT22;9266;51.132;17.062;2023-05-17T08:43:36;11.60;1.00
18281;DHT22;9266;51.132;17.062;2023-05-17T08:46:03;11.60;99.90
18281;DHT22;9266;51.132;17.062;2023-05-17T08:48:31;11.50;99.90
18281;DHT22;9266;51.132;17.062;2023-05-17T08:51:03;11.50;99.90
18281;DHT22;9266;51.132;17.062;2023-05-17T08:53:31;11.70;99.90
18281;DHT22;9266;51.132;17.062;2023-05-17T08:56:00;11.80;1.00
18281;DHT22;9266;51.132;17.062;2023-05-17T08:58:32;11.80;1.00
18281;DHT22;9266;51.132;17.062;2023-05-17T09:01:00;11.80;1.00
18281;DHT22;9266;51.132;17.062;2023-05-17T09:03:28;11.90;1.00
18281;DHT22;9266;51.132;17.062;2023-05-17T09:05:57;11.90;1.00
18281;DHT22;9266;51.132;17.062;2023-05-17T09:08:24;11.90;1.00
18281;DHT22;9266;51.132;17.062;2023-05-17T09:10:54;11.70;1.00
18281;DHT22;9266;51.132;17.062;2023-05-17T09:13:24;11.90;99.90
18281;DHT22;9266;51.132;17.062;2023-05-17T09:15:51;11.90;1.00
18281;DHT22;9266;51.132;17.062;2023-05-17T09:18:28;12.00;1.00
18281;DHT22;9266;51.132;17.062;2023-05-17T09:21:00;11.80;99.90
18281;DHT22;9266;51.132;17.062;2023-05-17T09:23:30;12.00;1.00
18281;DHT22;9266;51.132;17.062;2023-05-17T09:26:04;11.90;99.90
18281;DHT22;9266;51.132;17.062;2023-05-17T09:28:37;11.80;99.90
18281;DHT22;9266;51.132;17.062;2023-05-17T09:31:05;11.90;1.00
18281;DHT22;9266;51.132;17.062;2023-05-17T09:33:33;12.20;99.90
18281;DHT22;9266;51.132;17.062;2023-05-17T09:36:00;12.60;1.00
18281;DHT22;9266;51.132;17.062;2023-05-17T09:38:28;13.00;99.90
18281;DHT22;9266;51.132;17.062;2023-05-17T09:40:55;13.00;1.00
18281;DHT22;9266;51.132;17.062;2023-05-17T09:43:24;12.20;1.00
18281;DHT22;9266;51.132;17.062;2023-05-17T09:45:55;12.70;99.90
18281;DHT22;9266;51.132;17.062;2023-05-17T09:48:25;12.90;99.90
18281;DHT22;9266;51.132;17.062;2023-05-17T09:50:53;12.90;99.90
18281;DHT22;9266;51.132;17.062;2023-05-17T09:53:24;12.70;99.90
18281;DHT22;9266;51.132;17.062;2023-05-17T09:55:53;12.50;99.90
18281;DHT22;9266;51.132;17.062;2023-05-17T09:58:20;12.40;1.00
18281;DHT22;9266;51.132;17.062;2023-05-17T10:00:52;12.40;99.90
18281;DHT22;9266;51.132;17.062;2023-05-17T10:03:19;12.10;1.00
18281;DHT22;9266;51.132;17.062;2023-05-17T10:05:49;12.30;1.00
18281;DHT22;9266;51.132;17.062;2023-05-17T10:08:20;12.40;99.90
18281;DHT22;9266;51.132;17.062;2023-05-17T10:10:48;12.40;1.00
18281;DHT22;9266;51.132;17.062;2023-05-17T10:13:19;12.40;99.90
18281;DHT22;9266;51.132;17.062;2023-05-17T10:15:51;12.30;99.90
18281;DHT22;9266;51.132;17.062;2023-05-17T10:18:20;12.70;99.90
18281;DHT22;9266;51.132;17.062;2023-05-17T10:20:47;12.80;99.90
18281;DHT22;9266;51.132;17.062;2023-05-17T10:23:15;12.90;70.10
18281;DHT22;9266;51.132;17.062;2023-05-17T10:25:43;12.70;99.90
18281;DHT22;9266;51.132;17.062;2023-05-17T10:28:11;12.90;1.00
18281;DHT22;9266;51.132;17.062;2023-05-17T10:30:40;12.90;99.90
18281;DHT22;9266;51.132;17.062;2023-05-17T10:33:11;12.90;1.00
18281;DHT22;9266;51.132;17.062;2023-05-17T10:35:40;12.70;99.90
18281;DHT22;9266;51.132;17.062;2023-05-17T10:38:10;12.90;1.00
18281;DHT22;9266;51.132;17.062;2023-05-17T10:40:38;13.10;1.00
18281;DHT22;9266;51.132;17.062;2023-05-17T10:43:08;12.90;1.00
18281;DHT22;9266;51.132;17.062;2023-05-17T10:45:36;12.70;40.00
18281;DHT22;9266;51.132;17.062;2023-05-17T10:48:04;12.70;52.30
18281;DHT22;9266;51.132;17.062;2023-05-17T10:50:37;12.70;99.90
18281;DHT22;9266;51.132;17.062;2023-05-17T10:53:07;12.80;93.50
18281;DHT22;9266;51.132;17.062;2023-05-17T10:55:38;12.60;1.00
18281;DHT22;9266;51.132;17.062;2023-05-17T10:58:25;12.70;99.90
18281;DHT22;9266;51.132;17.062;2023-05-17T11:00:53;12.90;1.00
18281;DHT22;9266;51.132;17.062;2023-05-17T11:03:21;12.90;1.00
18281;DHT22;9266;51.132;17.062;2023-05-17T11:06:11;12.80;1.00
18281;DHT22;9266;51.132;17.062;2023-05-17T11:08:43;12.50;1.00
18281;DHT22;9266;51.132;17.062;2023-05-17T11:11:15;12.50;1.00
18281;DHT22;9266;51.132;17.062;2023-05-17T11:13:49;12.60;1.00
18281;DHT22;9266;51.132;17.062;2023-05-17T11:16:20;12.80;1.00
18281;DHT22;9266;51.132;17.062;2023-05-17T11:21:19;12.90;99.90
18281;DHT22;9266;51.132;17.062;2023-05-17T11:23:46;13.00;99.90
18281;DHT22;9266;51.132;17.062;2023-05-17T11:26:16;13.30;99.90
18281;DHT22;9266;51.132;17.062;2023-05-17T11:36:16;12.80;99.90
18281;DHT22;9266;51.132;17.062;2023-05-17T12:33:37;12.80;99.90
18281;DHT22;9266;51.132;17.062;2023-05-17T12:36:07;12.60;99.90
18281;DHT22;9266;51.132;17.062;2023-05-17T12:38:35;12.60;1.00
18281;DHT22;9266;51.132;17.062;2023-05-17T12:41:03;12.60;1.00
18281;DHT22;9266;51.132;17.062;2023-05-17T12:43:33;12.60;1.00
18281;DHT22;9266;51.132;17.062;2023-05-17T12:46:08;12.60;1.00
18281;DHT22;9266;51.132;17.062;2023-05-17T12:48:36;12.80;1.00
18281;DHT22;9266;51.132;17.062;2023-05-17T12:51:05;13.00;1.00
18281;DHT22;9266;51.132;17.062;2023-05-17T12:53:37;12.90;1.00
18281;DHT22;9266;51.132;17.062;2023-05-17T12:56:04;12.80;1.00
18281;DHT22;9266;51.132;17.062;2023-05-17T12:58:33;12.90;1.00
18281;DHT22;9266;51.132;17.062;2023-05-17T13:01:02;12.90;1.00
18281;DHT22;9266;51.132;17.062;2023-05-17T13:03:32;13.00;1.00
18281;DHT22;9266;51.132;17.062;2023-05-17T13:06:01;13.00;1.00
18281;DHT22;9266;51.132;17.062;2023-05-17T13:08:29;12.70;1.00
18281;DHT22;9266;51.132;17.062;2023-05-17T13:11:13;12.60;1.00
18281;DHT22;9266;51.132;17.062;2023-05-17T13:13:41;12.70;1.00
18281;DHT22;9266;51.132;17.062;2023-05-17T13:16:08;12.70;1.00
18281;DHT22;9266;51.132;17.062;2023-05-17T13:18:48;12.80;1.00
18281;DHT22;9266;51.132;17.062;2023-05-17T13:21:17;12.90;1.00
18281;DHT22;9266;51.132;17.062;2023-05-17T13:23:46;13.00;1.00
18281;DHT22;9266;51.132;17.062;2023-05-17T13:26:14;13.00;1.00
18281;DHT22;9266;51.132;17.062;2023-05-17T13:28:43;13.20;1.00
18281;DHT22;9266;51.132;17.062;2023-05-17T13:31:10;12.90;1.00
18281;DHT22;9266;51.132;17.062;2023-05-17T13:33:37;12.90;1.00
18281;DHT22;9266;51.132;17.062;2023-05-17T13:36:04;12.80;1.00
18281;DHT22;9266;51.132;17.062;2023-05-17T13:38:32;12.80;1.00
18281;DHT22;9266;51.132;17.062;2023-05-17T13:41:00;12.70;1.00
18281;DHT22;9266;51.132;17.062;2023-05-17T13:43:27;12.60;1.00
18281;DHT22;9266;51.132;17.062;2023-05-17T13:45:55;12.70;1.00
18281;DHT22;9266;51.132;17.062;2023-05-17T13:48:24;12.90;1.00
18281;DHT22;9266;51.132;17.062;2023-05-17T13:50:51;12.90;1.00
18281;DHT22;9266;51.132;17.062;2023-05-17T13:53:18;13.00;1.00
18281;DHT22;9266;51.132;17.062;2023-05-17T13:55:46;12.90;1.00
18281;DHT22;9266;51.132;17.062;2023-05-17T13:58:13;13.10;1.00
18281;DHT22;9266;51.132;17.062;2023-05-17T14:00:41;13.10;1.00
18281;DHT22;9266;51.132;17.062;2023-05-17T14:03:11;13.00;1.00
18281;DHT22;9266;51.132;17.062;2023-05-17T14:05:39;13.10;99.90
18281;DHT22;9266;51.132;17.062;2023-05-17T14:08:06;12.90;99.90
18281;DHT22;9266;51.132;17.062;2023-05-17T14:10:34;13.10;99.90
18281;DHT22;9266;51.132;17.062;2023-05-17T14:13:02;13.10;99.90
18281;DHT22;9266;51.132;17.062;2023-05-17T14:15:29;13.10;99.90
18281;DHT22;9266;51.132;17.062;2023-05-17T14:17:57;13.30;99.90
18281;DHT22;9266;51.132;17.062;2023-05-17T14:20:26;13.00;99.90
18281;DHT22;9266;51.132;17.062;2023-05-17T14:22:53;12.90;99.90
18281;DHT22;9266;51.132;17.062;2023-05-17T14:25:20;12.90;99.90
18281;DHT22;9266;51.132;17.062;2023-05-17T14:27:47;12.90;99.90
18281;DHT22;9266;51.132;17.062;2023-05-17T14:30:14;12.90;99.90
18281;DHT22;9266;51.132;17.062;2023-05-17T14:32:41;12.90;99.90
18281;DHT22;9266;51.132;17.062;2023-05-17T14:35:09;13.00;99.90
18281;DHT22;9266;51.132;17.062;2023-05-17T14:37:37;13.00;99.90
18281;DHT22;9266;51.132;17.062;2023-05-17T14:40:05;13.00;99.90
18281;DHT22;9266;51.132;17.062;2023-05-17T14:42:32;13.10;99.90
18281;DHT22;9266;51.132;17.062;2023-05-17T14:45:00;13.20;99.90
18281;DHT22;9266;51.132;17.062;2023-05-17T14:47:27;13.20;99.90
18281;DHT22;9266;51.132;17.062;2023-05-17T14:49:54;13.00;70.30
18281;DHT22;9266;51.132;17.062;2023-05-17T14:52:21;13.00;99.90
18281;DHT22;9266;51.132;17.062;2023-05-17T14:54:49;12.90;26.60
18281;DHT22;9266;51.132;17.062;2023-05-17T14:57:16;13.10;36.80
18281;DHT22;9266;51.132;17.062;2023-05-17T14:59:45;13.10;41.70
18281;DHT22;9266;51.132;17.062;2023-05-17T15:02:12;12.90;93.00
18281;DHT22;9266;51.132;17.062;2023-05-17T15:04:39;13.00;99.90
18281;DHT22;9266;51.132;17.062;2023-05-17T15:07:06;13.10;99.90
18281;DHT22;9266;51.132;17.062;2023-05-17T15:09:38;13.10;99.90
18281;DHT22;9266;51.132;17.062;2023-05-17T15:12:08;13.20;99.90
18281;DHT22;9266;51.132;17.062;2023-05-17T15:14:35;13.30;99.90
18281;DHT22;9266;51.132;17.062;2023-05-17T15:17:02;13.30;87.20
18281;DHT22;9266;51.132;17.062;2023-05-17T15:19:29;13.20;99.90
18281;DHT22;9266;51.132;17.062;2023-05-17T15:21:57;13.20;98.00
18281;DHT22;9266;51.132;17.062;2023-05-17T15:24:26;13.20;79.20
18281;DHT22;9266;51.132;17.062;2023-05-17T15:26:53;13.10;85.90
18281;DHT22;9266;51.132;17.062;2023-05-17T15:29:22;13.10;74.70
18281;DHT22;9266;51.132;17.062;2023-05-17T15:31:49;13.20;99.90
18281;DHT22;9266;51.132;17.062;2023-05-17T15:34:16;13.00;99.90
18281;DHT22;9266;51.132;17.062;2023-05-17T15:36:43;12.90;82.70
18281;DHT22;9266;51.132;17.062;2023-05-17T15:39:10;12.90;43.00
18281;DHT22;9266;51.132;17.062;2023-05-17T15:41:37;13.00;35.70
18281;DHT22;9266;51.132;17.062;2023-05-17T15:44:05;13.00;31.10
18281;DHT22;9266;51.132;17.062;2023-05-17T15:46:34;12.90;41.30
18281;DHT22;9266;51.132;17.062;2023-05-17T15:49:02;12.90;91.30
18281;DHT22;9266;51.132;17.062;2023-05-17T15:51:29;12.90;92.40
18281;DHT22;9266;51.132;17.062;2023-05-17T15:53:56;12.90;99.90
18281;DHT22;9266;51.132;17.062;2023-05-17T15:56:23;12.90;70.00
18281;DHT22;9266;51.132;17.062;2023-05-17T15:58:51;12.80;99.90
18281;DHT22;9266;51.132;17.062;2023-05-17T16:01:18;12.70;65.90
18281;DHT22;9266;51.132;17.062;2023-05-17T16:03:47;12.60;54.60
18281;DHT22;9266;51.132;17.062;2023-05-17T16:06:14;12.80;86.30
18281;DHT22;9266;51.132;17.062;2023-05-17T16:08:41;12.80;57.00
18281;DHT22;9266;51.132;17.062;2023-05-17T16:11:08;12.90;30.00
18281;DHT22;9266;51.132;17.062;2023-05-17T16:13:36;12.80;35.40
18281;DHT22;9266;51.132;17.062;2023-05-17T16:16:03;12.70;1.00
18281;DHT22;9266;51.132;17.062;2023-05-17T16:18:30;12.70;1.00
18281;DHT22;9266;51.132;17.062;2023-05-17T16:21:00;12.60;1.00
18281;DHT22;9266;51.132;17.062;2023-05-17T16:23:28;12.60;43.80
18281;DHT22;9266;51.132;17.062;2023-05-17T16:25:55;12.60;26.90
18281;DHT22;9266;51.132;17.062;2023-05-17T16:28:22;12.50;59.40
18281;DHT22;9266;51.132;17.062;2023-05-17T16:30:49;12.60;67.00
18281;DHT22;9266;51.132;17.062;2023-05-17T16:33:17;12.60;99.90
18281;DHT22;9266;51.132;17.062;2023-05-17T16:35:46;12.60;99.90
18281;DHT22;9266;51.132;17.062;2023-05-17T16:38:15;12.50;99.90
18281;DHT22;9266;51.132;17.062;2023-05-17T16:40:42;12.60;99.90
18281;DHT22;9266;51.132;17.062;2023-05-17T16:43:09;12.60;99.90
18281;DHT22;9266;51.132;17.062;2023-05-17T16:45:41;12.60;99.90
18281;DHT22;9266;51.132;17.062;2023-05-17T16:48:08;12.60;99.90
18281;DHT22;9266;51.132;17.062;2023-05-17T16:50:36;12.60;99.90